Time,TemperatureF,DewpointF,PressureIn,WindDirection,WindDirectionDegrees,WindSpeedMPH,WindSpeedGustMPH,Humidity,HourlyPrecipIn,Conditions,Clouds,dailyrainin,SoftwareType,DateUTC
2013-03-15 00:01:00,60.0,28.0,29.96,NNE,26,1.0,3.0,29,0.00,,,0.00,,2013-03-15 07:01:00,
2013-03-15 00:11:00,60.0,28.0,29.96,NNE,26,1.0,3.0,29,0.00,,,0.00,,2013-03-15 07:11:00,
2013-03-15 00:31:00,60.0,28.0,29.95,NNE,27,0.0,3.0,29,0.00,,,0.00,,2013-03-15 07:31:00,
2013-03-15 00:42:00,60.0,28.0,29.95,NNE,27,0.0,3.0,29,0.00,,,0.00,,2013-03-15 07:42:00,
2013-03-15 00:52:00,58.0,27.0,29.95,NNE,27,2.0,3.0,30,0.00,,,0.00,,2013-03-15 07:52:00,
2013-03-15 01:01:00,57.0,27.0,29.94,NNE,27,0.0,2.0,32,0.00,,,0.00,,2013-03-15 08:01:00,
2013-03-15 01:11:00,57.0,27.0,29.94,NNE,27,0.0,2.0,32,0.00,,,0.00,,2013-03-15 08:11:00,
2013-03-15 01:22:00,56.0,27.0,29.95,NNE,27,0.0,2.0,33,0.00,,,0.00,,2013-03-15 08:22:00,
2013-03-15 01:31:00,56.0,28.0,29.95,NNE,26,1.0,2.0,34,0.00,,,0.00,,2013-03-15 08:31:00,
2013-03-15 01:41:00,56.0,28.0,29.95,NNE,26,1.0,2.0,34,0.00,,,0.00,,2013-03-15 08:41:00,
2013-03-15 01:52:00,55.0,28.0,29.95,NNE,26,0.0,2.0,35,0.00,,,0.00,,2013-03-15 08:52:00,
2013-03-15 02:01:00,56.0,28.0,29.95,NNE,26,0.0,2.0,34,0.00,,,0.00,,2013-03-15 09:01:00,
2013-03-15 02:11:00,56.0,28.0,29.95,NNE,26,0.0,2.0,34,0.00,,,0.00,,2013-03-15 09:11:00,
2013-03-15 02:21:00,55.0,27.0,29.95,NNE,27,0.0,1.0,34,0.00,,,0.00,,2013-03-15 09:21:00,
2013-03-15 02:32:00,54.0,28.0,29.95,NNE,27,1.0,2.0,36,0.00,,,0.00,,2013-03-15 09:32:00,
2013-03-15 02:42:00,54.0,28.0,29.95,NNE,27,1.0,2.0,36,0.00,,,0.00,,2013-03-15 09:42:00,
2013-03-15 02:53:00,53.0,28.0,29.94,NNE,27,0.0,0.0,38,0.00,,,0.00,,2013-03-15 09:53:00,
2013-03-15 03:02:00,53.0,27.0,29.94,NNE,27,1.0,3.0,37,0.00,,,0.00,,2013-03-15 10:02:00,
2013-03-15 03:12:00,53.0,27.0,29.94,NNE,27,1.0,3.0,37,0.00,,,0.00,,2013-03-15 10:12:00,
2013-03-15 03:22:00,54.0,28.0,29.94,NNE,28,2.0,3.0,36,0.00,,,0.00,,2013-03-15 10:22:00,
2013-03-15 03:32:00,54.0,28.0,29.94,WSW,242,1.0,3.0,36,0.00,,,0.00,,2013-03-15 10:32:00,
2013-03-15 03:41:00,54.0,28.0,29.94,WSW,242,1.0,3.0,36,0.00,,,0.00,,2013-03-15 10:41:00,
2013-03-15 03:52:00,52.0,28.0,29.94,WSW,242,0.0,0.0,40,0.00,,,0.00,,2013-03-15 10:52:00,
2013-03-15 04:02:00,52.0,28.0,29.94,WSW,241,0.0,1.0,40,0.00,,,0.00,,2013-03-15 11:02:00,
2013-03-15 04:11:00,52.0,28.0,29.94,WSW,241,0.0,1.0,40,0.00,,,0.00,,2013-03-15 11:11:00,
2013-03-15 04:22:00,52.0,28.0,29.94,SSE,147,1.0,2.0,39,0.00,,,0.00,,2013-03-15 11:22:00,
2013-03-15 04:32:00,54.0,27.0,29.93,East,85,2.0,4.0,35,0.00,,,0.00,,2013-03-15 11:32:00,
2013-03-15 04:41:00,54.0,27.0,29.93,East,85,2.0,4.0,35,0.00,,,0.00,,2013-03-15 11:41:00,
2013-03-15 04:52:00,55.0,26.0,29.93,East,84,1.0,4.0,33,0.00,,,0.00,,2013-03-15 11:52:00,
2013-03-15 05:01:00,53.0,26.0,29.93,East,84,0.0,0.0,35,0.00,,,0.00,,2013-03-15 12:01:00,
2013-03-15 05:11:00,52.0,27.0,29.93,NW,306,1.0,5.0,38,0.00,,,0.00,,2013-03-15 12:11:00,
2013-03-15 05:21:00,52.0,27.0,29.93,NW,306,1.0,5.0,38,0.00,,,0.00,,2013-03-15 12:21:00,
2013-03-15 05:31:00,53.0,28.0,29.93,WNW,300,1.0,3.0,38,0.00,,,0.00,,2013-03-15 12:31:00,
2013-03-15 05:42:00,53.0,28.0,29.93,WNW,300,1.0,3.0,38,0.00,,,0.00,,2013-03-15 12:42:00,
2013-03-15 05:52:00,52.0,28.0,29.93,WNW,300,0.0,1.0,39,0.00,,,0.00,,2013-03-15 12:52:00,
2013-03-15 06:01:00,50.0,27.0,29.93,WNW,300,0.0,0.0,41,0.00,,,0.00,,2013-03-15 13:01:00,
2013-03-15 06:12:00,50.0,27.0,29.93,WNW,300,0.0,0.0,41,0.00,,,0.00,,2013-03-15 13:12:00,
2013-03-15 06:22:00,49.0,27.0,29.94,WNW,300,0.0,0.0,43,0.00,,,0.00,,2013-03-15 13:22:00,
2013-03-15 06:31:00,50.0,28.0,29.94,West,270,3.0,6.0,42,0.00,,,0.00,,2013-03-15 13:31:00,
2013-03-15 06:41:00,50.0,28.0,29.94,West,270,3.0,6.0,42,0.00,,,0.00,,2013-03-15 13:41:00,
2013-03-15 06:52:00,52.0,27.0,29.95,NW,307,1.0,6.0,37,0.00,,,0.00,,2013-03-15 13:52:00,
2013-03-15 07:01:00,50.0,27.0,29.95,NW,307,0.0,0.0,40,0.00,,,0.00,,2013-03-15 14:01:00,
2013-03-15 07:11:00,50.0,27.0,29.95,NW,307,0.0,0.0,40,0.00,,,0.00,,2013-03-15 14:11:00,
2013-03-15 07:22:00,50.0,28.0,29.95,NW,322,0.0,2.0,42,0.00,,,0.00,,2013-03-15 14:22:00,
2013-03-15 07:32:00,52.0,28.0,29.95,NW,322,1.0,3.0,39,0.00,,,0.00,,2013-03-15 14:32:00,
2013-03-15 07:41:00,52.0,28.0,29.95,NW,322,1.0,3.0,39,0.00,,,0.00,,2013-03-15 14:41:00,
2013-03-15 07:52:00,56.0,28.0,29.96,NNW,334,0.0,0.0,34,0.00,,,0.00,,2013-03-15 14:52:00,
2013-03-15 08:01:00,59.0,28.0,29.96,NNW,334,0.0,3.0,31,0.00,,,0.00,,2013-03-15 15:01:00,
2013-03-15 08:11:00,59.0,28.0,29.96,NNW,334,0.0,3.0,31,0.00,,,0.00,,2013-03-15 15:11:00,
2013-03-15 08:21:00,61.0,28.0,29.96,NNW,330,0.0,0.0,28,0.00,,,0.00,,2013-03-15 15:21:00,
2013-03-15 08:32:00,63.0,28.0,29.96,NNW,330,0.0,0.0,26,0.00,,,0.00,,2013-03-15 15:32:00,
2013-03-15 08:42:00,65.0,28.0,29.96,NNW,330,0.0,1.0,25,0.00,,,0.00,,2013-03-15 15:42:00,
2013-03-15 08:52:00,65.0,28.0,29.96,NNW,330,0.0,1.0,25,0.00,,,0.00,,2013-03-15 15:52:00,
2013-03-15 09:02:00,67.0,28.0,29.96,NNW,330,1.0,2.0,23,0.00,,,0.00,,2013-03-15 16:02:00,
2013-03-15 09:12:00,69.0,27.0,29.96,NNW,330,0.0,2.0,21,0.00,,,0.00,,2013-03-15 16:12:00,
2013-03-15 09:22:00,69.0,27.0,29.96,NNW,330,0.0,2.0,21,0.00,,,0.00,,2013-03-15 16:22:00,
2013-03-15 09:32:00,70.0,27.0,29.96,WSW,256,0.0,3.0,20,0.00,,,0.00,,2013-03-15 16:32:00,
2013-03-15 09:41:00,70.0,27.0,29.96,WSW,256,0.0,3.0,20,0.00,,,0.00,,2013-03-15 16:41:00,
2013-03-15 09:52:00,72.0,29.0,29.96,West,259,1.0,3.0,20,0.00,,,0.00,,2013-03-15 16:52:00,
2013-03-15 10:01:00,74.0,28.0,29.96,West,259,1.0,3.0,18,0.00,,,0.00,,2013-03-15 17:01:00,
2013-03-15 10:11:00,74.0,28.0,29.96,West,259,1.0,3.0,18,0.00,,,0.00,,2013-03-15 17:11:00,
2013-03-15 10:22:00,77.0,27.0,29.95,SSW,201,1.0,3.0,16,0.00,,,0.00,,2013-03-15 17:22:00,
2013-03-15 10:32:00,78.0,28.0,29.95,SSW,203,0.0,4.0,16,0.00,,,0.00,,2013-03-15 17:32:00,
2013-03-15 10:41:00,78.0,28.0,29.95,SSW,203,0.0,4.0,16,0.00,,,0.00,,2013-03-15 17:41:00,
2013-03-15 10:52:00,80.0,27.0,29.94,SSW,207,0.0,3.0,14,0.00,,,0.00,,2013-03-15 17:52:00,
2013-03-15 11:02:00,81.0,26.0,29.93,SSW,208,0.0,2.0,13,0.00,,,0.00,,2013-03-15 18:02:00,
2013-03-15 11:11:00,81.0,26.0,29.93,SSW,208,0.0,2.0,13,0.00,,,0.00,,2013-03-15 18:11:00,
2013-03-15 11:21:00,84.0,24.0,29.93,WSW,240,1.0,4.0,11,0.00,,,0.00,,2013-03-15 18:21:00,
2013-03-15 11:32:00,85.0,20.0,29.92,WSW,237,1.0,5.0,9,0.00,,,0.00,,2013-03-15 18:32:00,
2013-03-15 11:41:00,85.0,20.0,29.92,WSW,237,1.0,5.0,9,0.00,,,0.00,,2013-03-15 18:41:00,
2013-03-15 11:52:00,86.0,21.0,29.92,WSW,256,1.0,0.0,9,0.00,,,0.00,,2013-03-15 18:52:00,
2013-03-15 12:01:00,88.0,19.0,29.91,WNW,296,1.0,4.0,8,0.00,,,0.00,,2013-03-15 19:01:00,
2013-03-15 12:12:00,88.0,19.0,29.91,WNW,296,1.0,4.0,8,0.00,,,0.00,,2013-03-15 19:12:00,
2013-03-15 12:22:00,89.0,17.0,29.90,WSW,252,1.0,4.0,7,0.00,,,0.00,,2013-03-15 19:22:00,
2013-03-15 12:41:00,90.0,18.0,29.90,SW,233,2.0,7.0,7,0.00,,,0.00,,2013-03-15 19:41:00,
2013-03-15 12:52:00,90.0,14.0,29.89,SW,229,3.0,8.0,6,0.00,,,0.00,,2013-03-15 19:52:00,
2013-03-15 13:02:00,91.0,11.0,29.88,NNW,331,3.0,9.0,5,0.00,,,0.00,,2013-03-15 20:02:00,
2013-03-15 13:11:00,91.0,11.0,29.88,NNW,331,3.0,9.0,5,0.00,,,0.00,,2013-03-15 20:11:00,
2013-03-15 13:22:00,91.0,6.0,29.88,SW,234,5.0,10.0,4,0.00,,,0.00,,2013-03-15 20:22:00,
2013-03-15 13:31:00,92.0,0.0,29.86,WSW,255,6.0,12.0,3,0.00,,,0.00,,2013-03-15 20:31:00,
2013-03-15 13:41:00,92.0,0.0,29.86,WSW,255,6.0,12.0,3,0.00,,,0.00,,2013-03-15 20:41:00,
2013-03-15 13:52:00,91.0,0.0,29.86,SSW,213,5.0,12.0,3,0.00,,,0.00,,2013-03-15 20:52:00,
2013-03-15 14:01:00,92.0,6.0,29.85,WSW,243,5.0,11.0,4,0.00,,,0.00,,2013-03-15 21:01:00,
2013-03-15 14:11:00,92.0,6.0,29.85,WSW,243,5.0,11.0,4,0.00,,,0.00,,2013-03-15 21:11:00,
2013-03-15 14:21:00,92.0,11.0,29.84,WSW,241,6.0,12.0,5,0.00,,,0.00,,2013-03-15 21:21:00,
2013-03-15 14:32:00,93.0,12.0,29.83,SW,234,5.0,15.0,5,0.00,,,0.00,,2013-03-15 21:32:00,
2013-03-15 14:42:00,93.0,12.0,29.83,SW,234,5.0,15.0,5,0.00,,,0.00,,2013-03-15 21:42:00,
2013-03-15 14:52:00,93.0,12.0,29.83,SW,224,6.0,15.0,5,0.00,,,0.00,,2013-03-15 21:52:00,
2013-03-15 15:02:00,93.0,16.0,29.82,NW,319,6.0,13.0,6,0.00,,,0.00,,2013-03-15 22:02:00,
2013-03-15 15:12:00,93.0,16.0,29.82,NW,319,6.0,13.0,6,0.00,,,0.00,,2013-03-15 22:12:00,
2013-03-15 15:22:00,92.0,11.0,29.82,West,263,9.0,19.0,5,0.00,,,0.00,,2013-03-15 22:22:00,
2013-03-15 15:32:00,93.0,20.0,29.81,WSW,255,7.0,22.0,7,0.00,,,0.00,,2013-03-15 22:32:00,
2013-03-15 15:41:00,93.0,20.0,29.81,WSW,255,7.0,22.0,7,0.00,,,0.00,,2013-03-15 22:41:00,
2013-03-15 15:52:00,91.0,18.0,29.82,NW,319,13.0,24.0,7,0.00,,,0.00,,2013-03-15 22:52:00,
2013-03-15 16:02:00,91.0,18.0,29.82,WNW,290,11.0,19.0,7,0.00,,,0.00,,2013-03-15 23:02:00,
2013-03-15 16:11:00,91.0,18.0,29.82,WNW,290,11.0,19.0,7,0.00,,,0.00,,2013-03-15 23:11:00,
2013-03-15 16:21:00,90.0,21.0,29.82,WNW,283,11.0,19.0,8,0.00,,,0.00,,2013-03-15 23:21:00,
2013-03-15 16:31:00,89.0,20.0,29.82,West,273,8.0,17.0,8,0.00,,,0.00,,2013-03-15 23:31:00,
2013-03-15 16:42:00,89.0,20.0,29.82,West,273,8.0,17.0,8,0.00,,,0.00,,2013-03-15 23:42:00,
2013-03-15 16:53:00,89.0,20.0,29.81,NNW,334,8.0,16.0,8,0.00,,,0.00,,2013-03-15 23:53:00,
2013-03-15 17:02:00,89.0,23.0,29.81,West,276,9.0,17.0,9,0.00,,,0.00,,2013-03-16 00:02:00,
2013-03-15 17:11:00,89.0,23.0,29.81,West,276,9.0,17.0,9,0.00,,,0.00,,2013-03-16 00:11:00,
2013-03-15 17:22:00,88.0,22.0,29.81,NW,308,6.0,19.0,9,0.00,,,0.00,,2013-03-16 00:22:00,
2013-03-15 17:32:00,87.0,24.0,29.81,WSW,257,6.0,15.0,10,0.00,,,0.00,,2013-03-16 00:32:00,
2013-03-15 17:42:00,87.0,24.0,29.81,WSW,257,6.0,15.0,10,0.00,,,0.00,,2013-03-16 00:42:00,
2013-03-15 17:52:00,86.0,23.0,29.80,NW,305,7.0,17.0,10,0.00,,,0.00,,2013-03-16 00:52:00,
2013-03-15 18:01:00,86.0,23.0,29.80,West,267,6.0,13.0,10,0.00,,,0.00,,2013-03-16 01:01:00,
2013-03-15 18:11:00,86.0,23.0,29.80,West,267,6.0,13.0,10,0.00,,,0.00,,2013-03-16 01:11:00,
2013-03-15 18:21:00,84.0,22.0,29.80,NW,307,6.0,13.0,10,0.00,,,0.00,,2013-03-16 01:21:00,
2013-03-15 18:31:00,84.0,24.0,29.81,NW,310,3.0,8.0,11,0.00,,,0.00,,2013-03-16 01:31:00,
2013-03-15 18:41:00,84.0,24.0,29.81,NW,310,3.0,8.0,11,0.00,,,0.00,,2013-03-16 01:41:00,
2013-03-15 18:52:00,83.0,21.0,29.81,NW,309,4.0,9.0,10,0.00,,,0.00,,2013-03-16 01:52:00,
2013-03-15 19:02:00,82.0,22.0,29.81,NNW,336,3.0,9.0,11,0.00,,,0.00,,2013-03-16 02:02:00,
2013-03-15 19:11:00,82.0,22.0,29.81,NNW,336,3.0,9.0,11,0.00,,,0.00,,2013-03-16 02:11:00,
2013-03-15 19:22:00,81.0,22.0,29.81,NW,313,3.0,9.0,11,0.00,,,0.00,,2013-03-16 02:22:00,
2013-03-15 19:32:00,81.0,22.0,29.81,NNW,339,3.0,9.0,11,0.00,,,0.00,,2013-03-16 02:32:00,
2013-03-15 19:42:00,81.0,22.0,29.81,NNW,339,3.0,9.0,11,0.00,,,0.00,,2013-03-16 02:42:00,
2013-03-15 19:52:00,81.0,22.0,29.81,WNW,290,3.0,9.0,11,0.00,,,0.00,,2013-03-16 02:52:00,
2013-03-15 20:01:00,80.0,23.0,29.81,WNW,302,2.0,9.0,12,0.00,,,0.00,,2013-03-16 03:01:00,
2013-03-15 20:11:00,80.0,23.0,29.81,WNW,302,2.0,9.0,12,0.00,,,0.00,,2013-03-16 03:11:00,
2013-03-15 20:21:00,77.0,22.0,29.81,WNW,302,0.0,2.0,13,0.00,,,0.00,,2013-03-16 03:21:00,
2013-03-15 20:32:00,73.0,23.0,29.82,WNW,302,0.0,1.0,15,0.00,,,0.00,,2013-03-16 03:32:00,
2013-03-15 20:42:00,73.0,23.0,29.82,WNW,302,0.0,1.0,15,0.00,,,0.00,,2013-03-16 03:42:00,
2013-03-15 20:53:00,72.0,25.0,29.82,WNW,302,0.0,0.0,17,0.00,,,0.00,,2013-03-16 03:53:00,
2013-03-15 21:02:00,70.0,25.0,29.83,WNW,303,0.0,2.0,18,0.00,,,0.00,,2013-03-16 04:02:00,
2013-03-15 21:12:00,70.0,25.0,29.83,WNW,303,0.0,2.0,18,0.00,,,0.00,,2013-03-16 04:12:00,
2013-03-15 21:22:00,69.0,25.0,29.83,WNW,303,0.0,0.0,19,0.00,,,0.00,,2013-03-16 04:22:00,
2013-03-15 21:32:00,69.0,26.0,29.83,NW,306,0.0,2.0,20,0.00,,,0.00,,2013-03-16 04:32:00,
2013-03-15 21:42:00,69.0,26.0,29.83,NW,306,0.0,2.0,20,0.00,,,0.00,,2013-03-16 04:42:00,
2013-03-15 21:52:00,67.0,26.0,29.83,North,357,0.0,2.0,21,0.00,,,0.00,,2013-03-16 04:52:00,
2013-03-15 22:02:00,67.0,26.0,29.83,North,357,0.0,2.0,21,0.00,,,0.00,,2013-03-16 05:02:00,
2013-03-15 22:12:00,67.0,26.0,29.83,North,357,0.0,2.0,21,0.00,,,0.00,,2013-03-16 05:12:00,
2013-03-15 22:21:00,66.0,27.0,29.84,North,357,1.0,2.0,23,0.00,,,0.00,,2013-03-16 05:21:00,
2013-03-15 22:31:00,66.0,27.0,29.85,North,357,1.0,3.0,23,0.00,,,0.00,,2013-03-16 05:31:00,
2013-03-15 22:42:00,66.0,27.0,29.85,North,357,1.0,3.0,23,0.00,,,0.00,,2013-03-16 05:42:00,
2013-03-15 22:52:00,66.0,28.0,29.85,North,357,0.0,2.0,24,0.00,,,0.00,,2013-03-16 05:52:00,
2013-03-15 23:02:00,63.0,28.0,29.85,North,357,0.0,2.0,26,0.00,,,0.00,,2013-03-16 06:02:00,
2013-03-15 23:11:00,63.0,28.0,29.85,North,357,0.0,2.0,26,0.00,,,0.00,,2013-03-16 06:11:00,
2013-03-15 23:21:00,62.0,28.0,29.85,North,357,1.0,2.0,27,0.00,,,0.00,,2013-03-16 06:21:00,
2013-03-15 23:32:00,62.0,29.0,29.85,North,353,1.0,3.0,29,0.00,,,0.00,,2013-03-16 06:32:00,
2013-03-15 23:41:00,62.0,29.0,29.85,North,353,1.0,3.0,29,0.00,,,0.00,,2013-03-16 06:41:00,
2013-03-15 23:52:00,61.0,29.0,29.84,North,353,0.0,1.0,29,0.00,,,0.00,,2013-03-16 06:52:00,